createdAt,value
2024-01-07T00:01:54.615Z,0
2024-01-07T00:06:52.090Z,0
2024-01-07T00:11:49.121Z,0
2024-01-07T00:16:54.861Z,0
2024-01-07T00:21:48.947Z,0
2024-01-07T00:26:53.012Z,0
2024-01-07T00:31:55.945Z,1
2024-01-07T00:36:51.227Z,0
2024-01-07T00:41:53.034Z,3
2024-01-07T00:46:53.737Z,0
2024-01-07T00:51:51.468Z,0
2024-01-07T00:56:51.650Z,0
2024-01-07T01:01:59.105Z,0
2024-01-07T01:06:54.077Z,0
2024-01-07T01:11:52.134Z,0
2024-01-07T01:16:58.557Z,0
2024-01-07T01:21:49.325Z,0
2024-01-07T01:26:55.469Z,0
2024-01-07T01:31:50.595Z,0
2024-01-07T01:36:53.390Z,2.333
2024-01-07T01:41:51.382Z,1.5
2024-01-07T01:46:52.065Z,0
2024-01-07T01:51:53.126Z,2.333
2024-01-07T01:56:52.658Z,0
2024-01-07T02:01:58.428Z,0
2024-01-07T02:06:53.699Z,0
2024-01-07T02:11:52.597Z,0
2024-01-07T02:17:00.328Z,0
2024-01-07T02:21:58.510Z,0
2024-01-07T02:26:54.358Z,0
2024-01-07T02:31:55.207Z,2.5
2024-01-07T02:36:59.666Z,0
2024-01-07T02:41:59.388Z,0
2024-01-07T02:47:06.172Z,0
2024-01-07T02:51:50.221Z,0
2024-01-07T02:56:55.145Z,2.5
2024-01-07T03:01:56.345Z,1.5
2024-01-07T03:07:04.052Z,0
2024-01-07T03:11:54.167Z,1.5
2024-01-07T03:16:55.067Z,0
2024-01-07T03:21:57.528Z,0
2024-01-07T03:26:54.579Z,0
2024-01-07T03:31:54.378Z,0
2024-01-07T03:36:50.740Z,0
2024-01-07T03:41:56.701Z,0
2024-01-07T03:46:52.959Z,0
2024-01-07T03:51:56.688Z,0
2024-01-07T03:56:57.655Z,0
2024-01-07T04:01:53.409Z,0
2024-01-07T04:06:55.276Z,1.5
2024-01-07T04:11:46.841Z,0
2024-01-07T04:16:47.031Z,0
2024-01-07T04:21:48.834Z,0
2024-01-07T04:26:52.555Z,0
2024-01-07T04:31:50.878Z,0
2024-01-07T04:36:48.494Z,0
2024-01-07T04:41:50.440Z,2.5
2024-01-07T04:46:57.994Z,1.5
2024-01-07T04:51:49.760Z,0
2024-01-07T04:56:56.270Z,0
2024-01-07T05:01:56.597Z,0
2024-01-07T05:06:56.401Z,2.333
2024-01-07T05:11:56.337Z,1
2024-01-07T05:16:53.268Z,0
2024-01-07T05:21:52.130Z,0
2024-01-07T05:27:01.146Z,0
2024-01-07T05:31:55.657Z,0
2024-01-07T05:36:53.962Z,0
2024-01-07T05:41:55.295Z,1.5
2024-01-07T05:46:54.661Z,0
2024-01-07T05:51:51.913Z,0
2024-01-07T05:56:58.472Z,0
2024-01-07T06:01:57.569Z,0
2024-01-07T06:07:06.412Z,0
2024-01-07T06:11:50.941Z,0
2024-01-07T06:16:52.043Z,0
2024-01-07T06:21:54.929Z,0
2024-01-07T06:26:53.368Z,0
2024-01-07T06:32:03.940Z,1
2024-01-07T06:36:50.134Z,1.938
2024-01-07T06:41:58.379Z,2.722
2024-01-07T06:46:51.552Z,3.471
2024-01-07T06:51:51.042Z,6.667
2024-01-07T06:56:51.991Z,9
2024-01-07T07:01:57.025Z,12.231
2024-01-07T07:07:01.754Z,14.615
2024-01-07T07:11:54.293Z,19.933
2024-01-07T07:16:50.754Z,24.692
2024-01-07T07:21:55.986Z,28.4
2024-01-07T07:26:59.681Z,33.8
2024-01-07T07:32:05.580Z,41.533
2024-01-07T07:37:00.495Z,52.462
2024-01-07T07:42:00.033Z,63.846
2024-01-07T07:47:05.100Z,77.077
2024-01-07T07:52:04.426Z,92.462
2024-01-07T07:57:00.914Z,106.615
2024-01-07T08:02:02.999Z,162.727
2024-01-07T08:06:58.076Z,194
2024-01-07T08:11:54.603Z,216
2024-01-07T08:17:03.627Z,209.4
2024-01-07T08:22:02.039Z,220.9
2024-01-07T08:26:59.196Z,292
2024-01-07T08:32:03.316Z,301.875
2024-01-07T08:37:06.399Z,288.222
2024-01-07T08:41:58.315Z,324
2024-01-07T08:46:59.629Z,330.375
2024-01-07T08:51:58.338Z,298.5
2024-01-07T08:56:58.707Z,350.125
2024-01-07T09:01:54.898Z,337.875
2024-01-07T09:06:56.713Z,331.125
2024-01-07T09:12:00.591Z,348.375
2024-01-07T09:16:59.942Z,483.375
2024-01-07T09:22:01.736Z,550.5
2024-01-07T09:26:51.829Z,477.875
2024-01-07T09:32:04.844Z,507.625
2024-01-07T09:37:06.778Z,575.125
2024-01-07T09:41:55.162Z,477.25
2024-01-07T09:46:59.043Z,508.625
2024-01-07T09:51:56.174Z,598.25
2024-01-07T09:56:56.017Z,508.875
2024-01-07T10:01:58.197Z,464.375
2024-01-07T10:07:00.351Z,425.5
2024-01-07T10:11:53.232Z,435.375
2024-01-07T10:17:01.330Z,393.625
2024-01-07T10:21:54.644Z,402.625
2024-01-07T10:26:53.311Z,421.625
2024-01-07T10:31:58.749Z,405.125
2024-01-07T10:37:00.686Z,411.75
2024-01-07T10:42:01.089Z,430.625
2024-01-07T10:47:02.164Z,446.25
2024-01-07T10:52:02.788Z,503.875
2024-01-07T10:57:02.585Z,531.5
2024-01-07T11:01:59.236Z,617.125
2024-01-07T11:06:57.356Z,678.875
2024-01-07T11:12:06.748Z,646.875
2024-01-07T11:17:12.323Z,630.625
2024-01-07T11:22:04.780Z,741.5
2024-01-07T11:27:04.285Z,710.125
2024-01-07T11:32:04.316Z,693.625
2024-01-07T11:37:01.567Z,662.625
2024-01-07T11:41:59.479Z,643.5
2024-01-07T11:47:08.904Z,622.75
2024-01-07T11:52:00.276Z,584.25
2024-01-07T11:56:59.366Z,577.875
2024-01-07T12:02:00.108Z,551.375
2024-01-07T12:07:00.641Z,467.75
2024-01-07T12:12:06.303Z,455.875
2024-01-07T12:17:01.993Z,530.125
2024-01-07T12:21:58.179Z,611.5
2024-01-07T12:26:58.648Z,595.625
2024-01-07T12:32:03.203Z,609.75
2024-01-07T12:37:01.226Z,585.625
2024-01-07T12:41:58.364Z,477.5
2024-01-07T12:47:02.520Z,388.375
2024-01-07T12:52:02.184Z,290.778
2024-01-07T12:57:00.029Z,297.222
2024-01-07T13:02:08.135Z,296.889
2024-01-07T13:06:59.128Z,247.7
2024-01-07T13:11:59.996Z,225.4
2024-01-07T13:17:00.343Z,222
2024-01-07T13:22:01.413Z,217.5
2024-01-07T13:27:07.002Z,220.4
2024-01-07T13:32:00.024Z,212.9
2024-01-07T13:36:59.052Z,211.7
2024-01-07T13:42:05.434Z,205.6
2024-01-07T13:57:26.490Z,158.818
2024-01-07T14:02:01.463Z,158.909
2024-01-07T14:06:59.739Z,141
2024-01-07T14:11:53.521Z,113.333
2024-01-07T14:16:58.484Z,107.667
2024-01-07T14:21:56.575Z,87.615
2024-01-07T14:26:57.446Z,77.308
2024-01-07T14:32:05.462Z,76.077
2024-01-07T14:36:55.834Z,68.077
2024-01-07T14:41:52.145Z,58.231
2024-01-07T14:46:57.468Z,46.4
2024-01-07T14:51:56.118Z,37.067
2024-01-07T14:56:51.789Z,29.692
2024-01-07T15:02:03.287Z,21.615
2024-01-07T15:07:00.323Z,14.769
2024-01-07T15:11:57.251Z,8.4
2024-01-07T15:17:01.168Z,5.267
2024-01-07T15:21:53.517Z,2.824
2024-01-07T15:26:48.900Z,1.875
2024-01-07T15:31:50.690Z,1
2024-01-07T15:36:52.883Z,0
2024-01-07T15:41:53.962Z,0
2024-01-07T15:46:53.680Z,0
2024-01-07T15:51:50.861Z,2.5
2024-01-07T15:56:55.018Z,0
2024-01-07T16:01:53.837Z,0
2024-01-07T16:06:57.136Z,0
2024-01-07T16:11:55.692Z,0
2024-01-07T16:16:57.558Z,2.333
2024-01-07T16:21:56.428Z,0
2024-01-07T16:26:52.212Z,0
2024-01-07T16:31:58.524Z,1.5
2024-01-07T16:36:54.986Z,3
2024-01-07T16:41:48.836Z,0
2024-01-07T16:47:00.830Z,0
2024-01-07T16:52:03.434Z,2.5
2024-01-07T16:56:53.248Z,0
2024-01-07T17:01:57.016Z,0
2024-01-07T17:06:57.885Z,0
2024-01-07T17:11:54.744Z,1
2024-01-07T17:16:59.063Z,0
2024-01-07T17:21:56.640Z,3
2024-01-07T17:26:56.701Z,1.5
2024-01-07T17:31:56.786Z,0
2024-01-07T17:36:59.019Z,1.5
2024-01-07T17:41:57.277Z,0
2024-01-07T17:46:49.357Z,3
2024-01-07T17:52:00.940Z,0
2024-01-07T17:56:52.542Z,0
2024-01-07T18:02:00.124Z,0
2024-01-07T18:06:52.199Z,0
2024-01-07T18:11:56.822Z,1.5
2024-01-07T18:16:54.660Z,0
2024-01-07T18:21:53.720Z,3
2024-01-07T18:26:56.562Z,0
2024-01-07T18:31:52.700Z,1.333
2024-01-07T18:36:57.577Z,0
2024-01-07T18:41:52.137Z,0
2024-01-07T18:46:51.208Z,0
2024-01-07T18:51:55.616Z,1.5
2024-01-07T18:56:54.223Z,0
2024-01-07T19:01:49.251Z,0
2024-01-07T19:06:58.889Z,0
2024-01-07T19:11:54.673Z,0
2024-01-07T19:16:54.273Z,0
2024-01-07T19:21:56.960Z,0
2024-01-07T19:26:58.348Z,0
2024-01-07T19:31:56.937Z,0
2024-01-07T19:36:57.164Z,0
2024-01-07T19:41:58.661Z,1
2024-01-07T19:46:57.353Z,1
2024-01-07T19:51:52.988Z,1.5
2024-01-07T19:56:52.621Z,0
2024-01-07T20:01:54.346Z,0
2024-01-07T20:06:53.871Z,1.333
2024-01-07T20:12:03.351Z,0
2024-01-07T20:16:56.011Z,0
2024-01-07T20:21:58.553Z,0
2024-01-07T20:27:03.648Z,2.333
2024-01-07T20:31:53.996Z,3
2024-01-07T20:36:54.684Z,0
2024-01-07T20:41:48.653Z,0
2024-01-07T20:46:53.753Z,0
2024-01-07T20:51:53.130Z,0
2024-01-07T20:56:52.939Z,0
2024-01-07T21:01:59.884Z,0
2024-01-07T21:06:52.653Z,0
2024-01-07T21:12:03.773Z,3
2024-01-07T21:16:56.066Z,1.5
2024-01-07T21:21:54.408Z,0
2024-01-07T21:26:49.132Z,1
2024-01-07T21:31:54.002Z,0
2024-01-07T21:36:54.489Z,0
2024-01-07T21:41:53.905Z,0
2024-01-07T21:46:49.179Z,1.5
2024-01-07T21:51:50.682Z,2.5
2024-01-07T21:56:48.511Z,0
2024-01-07T22:01:51.021Z,0
2024-01-07T22:06:53.969Z,0
2024-01-07T22:11:53.325Z,0
2024-01-07T22:16:53.330Z,0
2024-01-07T22:21:50.998Z,0
2024-01-07T22:26:49.354Z,0
2024-01-07T22:31:50.950Z,0
2024-01-07T22:36:47.758Z,0
2024-01-07T22:41:53.775Z,1.5
2024-01-07T22:46:56.752Z,0
2024-01-07T22:51:53.575Z,0
2024-01-07T22:56:51.765Z,2.5
2024-01-07T23:06:56.814Z,0
2024-01-07T23:11:58.613Z,0
2024-01-07T23:16:53.816Z,0
2024-01-07T23:21:57.248Z,0
2024-01-07T23:26:49.809Z,3
2024-01-07T23:32:01.492Z,0
2024-01-07T23:37:06.399Z,0
2024-01-07T23:41:57.861Z,0
2024-01-07T23:46:58.643Z,0
2024-01-07T23:51:51.807Z,0
2024-01-07T23:56:58.741Z,0
